Time;durP1;ratioP1;P1;durP2;ratioP2;P2;SDS_P1;SDS_P2;PMS_P1;PMS_P2;Temp;Humidity;BMP_temperature;BMP_pressure;BME280_temperature;BME280_humidity;BME280_pressure;Samples;Min_cycle;Max_cycle;Signal;HPM_P1;HPM_P2
2023/01/31 00:01:32;;;;;;;12.93;2.35;;;3.50;99.90;;;;;;5063773;28;20028;-79
2023/01/31 00:03:59;;;;;;;17.98;3.10;;;3.50;99.90;;;;;;5062834;28;20476;-79
2023/01/31 00:06:30;;;;;;;11.65;2.20;;;3.50;99.90;;;;;;5068447;28;20136;-79
2023/01/31 00:08:56;;;;;;;14.48;4.30;;;3.50;99.90;;;;;;5055580;28;20448;-79
2023/01/31 00:11:22;;;;;;;10.38;2.45;;;3.60;99.90;;;;;;5063463;28;20071;-79
2023/01/31 00:13:48;;;;;;;4.85;0.98;;;3.60;99.90;;;;;;5057595;28;20072;-79
2023/01/31 00:16:14;;;;;;;14.55;2.17;;;3.50;99.90;;;;;;5062109;28;20033;-79
2023/01/31 00:18:39;;;;;;;3.83;0.85;;;3.50;99.90;;;;;;5069298;27;20092;-79
2023/01/31 00:21:16;;;;;;;21.27;4.13;;;3.70;99.90;;;;;;5082950;28;20054;-79
2023/01/31 00:23:42;;;;;;;16.20;3.70;;;3.60;99.90;;;;;;5066505;28;20035;-79
2023/01/31 00:26:45;;;;;;;8.00;2.45;;;3.70;99.90;;;;;;5044338;28;20040;-79
2023/01/31 00:29:10;;;;;;;14.10;2.35;;;3.70;99.90;;;;;;5062784;28;20082;-79
2023/01/31 00:31:36;;;;;;;12.45;3.30;;;3.60;99.90;;;;;;5061153;28;20491;-78
2023/01/31 00:34:01;;;;;;;17.75;2.35;;;3.70;99.90;;;;;;5031320;28;20057;-79
2023/01/31 00:36:29;;;;;;;21.83;3.88;;;3.70;99.90;;;;;;5059454;28;20150;-79
2023/01/31 00:38:56;;;;;;;20.77;5.97;;;3.90;99.90;;;;;;5048128;28;20032;-79
2023/01/31 00:41:24;;;;;;;11.25;3.00;;;3.80;99.90;;;;;;5037047;28;20035;-78
2023/01/31 00:43:49;;;;;;;24.13;4.53;;;3.90;99.90;;;;;;5054818;28;20553;-79
2023/01/31 00:46:15;;;;;;;21.88;3.95;;;3.90;99.90;;;;;;5050471;28;20033;-79
2023/01/31 00:48:41;;;;;;;19.65;2.80;;;3.90;99.90;;;;;;5035873;28;20037;-79
2023/01/31 00:51:06;;;;;;;17.88;3.75;;;3.90;99.90;;;;;;5050291;28;20039;-79
2023/01/31 00:53:32;;;;;;;11.85;3.58;;;3.90;99.90;;;;;;5037380;28;20121;-79
2023/01/31 00:56:06;;;;;;;15.50;3.97;;;3.90;99.90;;;;;;5053200;28;20039;-79
2023/01/31 00:58:32;;;;;;;15.27;4.85;;;4.00;99.90;;;;;;5050112;28;20033;-79
2023/01/31 01:01:05;;;;;;;16.73;4.20;;;4.00;99.90;;;;;;5030926;28;20029;-79
2023/01/31 01:03:30;;;;;;;13.50;3.05;;;3.90;99.90;;;;;;5045586;28;20524;-79
2023/01/31 01:05:56;;;;;;;6.32;1.75;;;3.80;99.90;;;;;;5037216;28;20060;-79
2023/01/31 01:08:21;;;;;;;7.90;2.58;;;3.90;99.90;;;;;;5067436;28;20055;-79
2023/01/31 01:10:47;;;;;;;3.97;1.55;;;3.90;99.90;;;;;;5037993;28;21723;-79
2023/01/31 01:13:12;;;;;;;6.90;1.50;;;3.90;99.90;;;;;;5052592;28;20049;-79
2023/01/31 01:15:38;;;;;;;16.35;2.58;;;3.90;99.90;;;;;;5067920;28;20028;-79
2023/01/31 01:18:04;;;;;;;9.68;3.30;;;3.90;99.90;;;;;;5051130;28;20029;-79
2023/01/31 01:20:29;;;;;;;20.95;3.63;;;3.90;99.90;;;;;;5077123;28;20558;-79
2023/01/31 01:22:55;;;;;;;28.48;5.00;;;3.90;99.90;;;;;;5061272;28;20514;-79
2023/01/31 01:25:20;;;;;;;11.40;1.85;;;3.80;99.90;;;;;;5066688;28;20028;-79
2023/01/31 01:27:46;;;;;;;16.92;3.00;;;3.80;99.90;;;;;;5055077;28;20031;-79
2023/01/31 01:30:11;;;;;;;17.75;3.78;;;3.80;99.90;;;;;;5044780;28;20021;-79
2023/01/31 01:32:37;;;;;;;18.25;3.00;;;3.70;99.90;;;;;;5051246;28;20044;-79
2023/01/31 01:35:03;;;;;;;8.07;2.10;;;3.70;99.90;;;;;;5066114;28;20111;-79
2023/01/31 01:37:29;;;;;;;4.80;1.30;;;3.60;99.90;;;;;;5064068;28;20133;-79
2023/01/31 01:39:54;;;;;;;7.60;3.10;;;3.60;99.90;;;;;;5038715;28;20036;-79
2023/01/31 01:42:23;;;;;;;13.13;2.72;;;3.70;99.90;;;;;;5080713;28;20032;-79
2023/01/31 01:44:51;;;;;;;12.68;1.98;;;3.60;99.90;;;;;;5038029;28;20111;-78
2023/01/31 01:47:49;;;;;;;13.20;2.40;;;3.50;99.90;;;;;;5050509;28;20094;-79
2023/01/31 01:50:35;;;;;;;4.43;0.93;;;3.60;99.90;;;;;;5065577;28;21008;-79
2023/01/31 01:53:10;;;;;;;12.88;3.03;;;3.60;99.90;;;;;;5062463;28;20115;-79
2023/01/31 01:55:54;;;;;;;20.08;2.20;;;3.60;99.90;;;;;;5046253;28;20032;-79
2023/01/31 01:58:31;;;;;;;12.38;1.95;;;3.50;99.90;;;;;;5063949;28;20115;-79
2023/01/31 02:00:56;;;;;;;16.95;2.80;;;3.50;99.90;;;;;;5089496;28;20430;-78
2023/01/31 02:03:22;;;;;;;24.65;4.18;;;3.40;99.90;;;;;;5046035;28;20038;-79
2023/01/31 02:05:52;;;;;;;15.50;3.25;;;3.40;99.90;;;;;;5045663;28;20621;-78
2023/01/31 02:08:20;;;;;;;20.90;2.97;;;3.50;99.90;;;;;;5041890;28;20124;-79
2023/01/31 02:11:03;;;;;;;9.45;3.00;;;3.50;99.90;;;;;;5061427;28;20115;-79
2023/01/31 02:13:29;;;;;;;22.65;3.70;;;3.50;99.90;;;;;;5056605;28;20033;-79
2023/01/31 02:15:54;;;;;;;14.95;3.72;;;3.50;99.90;;;;;;5056861;28;20415;-79
2023/01/31 02:18:21;;;;;;;9.98;3.50;;;3.60;99.90;;;;;;5045751;28;20029;-78
2023/01/31 02:20:46;;;;;;;20.23;3.13;;;3.60;99.90;;;;;;5042146;28;20028;-78
2023/01/31 02:23:39;;;;;;;10.98;3.15;;;3.40;99.90;;;;;;5078911;28;20036;-78
2023/01/31 02:26:42;;;;;;;18.80;1.98;;;3.50;99.90;;;;;;5079362;28;20032;-78
2023/01/31 02:29:29;;;;;;;8.82;2.13;;;3.40;99.90;;;;;;5086330;28;20039;-78
2023/01/31 02:32:16;;;;;;;14.93;2.40;;;3.40;99.90;;;;;;5084235;28;20119;-77
2023/01/31 02:34:47;;;;;;;8.68;2.25;;;3.50;99.90;;;;;;5086151;28;20032;-78
2023/01/31 02:37:22;;;;;;;12.35;1.63;;;3.50;99.90;;;;;;5071772;28;20043;-79
2023/01/31 02:40:02;;;;;;;8.65;2.78;;;3.50;99.90;;;;;;5071497;28;20053;-78
2023/01/31 02:42:40;;;;;;;17.73;2.65;;;3.50;99.90;;;;;;5082572;28;20082;-79
2023/01/31 02:45:15;;;;;;;10.52;2.10;;;3.50;99.90;;;;;;5082535;28;20060;-79
2023/01/31 02:48:01;;;;;;;5.72;2.45;;;3.50;99.90;;;;;;5066281;28;20494;-79
2023/01/31 02:50:32;;;;;;;;;;;3.50;99.90;;;;;;5093018;28;20077;-78
2023/01/31 02:53:20;;;;;;;15.40;2.88;;;3.60;99.90;;;;;;5068025;28;19943;-76
2023/01/31 02:56:19;;;;;;;10.35;2.55;;;3.50;99.90;;;;;;5087600;28;20494;-78
2023/01/31 02:58:52;;;;;;;6.70;1.45;;;3.60;99.90;;;;;;5081528;28;20039;-78
2023/01/31 03:01:24;;;;;;;11.80;1.58;;;3.60;99.90;;;;;;5073131;28;20024;-78
2023/01/31 03:03:50;;;;;;;12.77;2.42;;;3.60;99.90;;;;;;5090136;28;20376;-78
2023/01/31 03:06:30;;;;;;;21.05;2.70;;;3.60;99.90;;;;;;5071325;28;20037;-78
2023/01/31 03:09:01;;;;;;;10.90;1.70;;;3.70;99.90;;;;;;5090284;28;20059;-78
2023/01/31 03:11:31;;;;;;;13.30;2.90;;;3.70;99.90;;;;;;5089583;28;20059;-78
2023/01/31 03:14:11;;;;;;;15.43;2.20;;;3.70;99.90;;;;;;5063993;28;20155;-78
2023/01/31 03:19:35;;;;;;;18.38;2.95;;;3.70;99.90;;;;;;5067765;28;20054;-78
2023/01/31 03:22:04;;;;;;;8.20;2.08;;;3.70;99.90;;;;;;5071856;28;20044;-79
2023/01/31 03:24:30;;;;;;;7.88;1.35;;;3.70;99.90;;;;;;5070794;28;20028;-78
2023/01/31 03:26:56;;;;;;;22.98;3.60;;;3.70;99.90;;;;;;5096189;28;20063;-79
2023/01/31 03:29:22;;;;;;;4.85;1.67;;;3.60;99.90;;;;;;5074758;28;20142;-79
2023/01/31 03:31:53;;;;;;;12.45;2.80;;;3.70;99.90;;;;;;5072374;28;20044;-79
2023/01/31 03:34:19;;;;;;;13.50;2.63;;;3.60;99.90;;;;;;5060156;28;20042;-79
2023/01/31 03:37:00;;;;;;;12.93;2.30;;;3.70;99.90;;;;;;5091262;28;20162;-79
2023/01/31 03:40:00;;;;;;;3.60;1.25;;;3.60;99.90;;;;;;5056658;28;20487;-79
2023/01/31 03:42:45;;;;;;;7.95;1.48;;;3.60;99.90;;;;;;5084919;28;20024;-79
2023/01/31 03:45:33;;;;;;;8.35;2.50;;;3.60;99.90;;;;;;5087021;28;20554;-79
2023/01/31 03:47:59;;;;;;;18.25;3.03;;;3.60;99.90;;;;;;5085549;28;20028;-79
2023/01/31 03:50:30;;;;;;;13.35;3.15;;;3.60;99.90;;;;;;5068305;28;20047;-79
2023/01/31 03:52:57;;;;;;;14.20;2.53;;;3.60;99.90;;;;;;5069539;28;20502;-79
2023/01/31 03:55:33;;;;;;;16.08;2.80;;;3.70;99.90;;;;;;5086845;28;20076;-79
2023/01/31 03:57:59;;;;;;;;;;;3.60;99.90;;;;;;5089562;28;20035;-79
2023/01/31 04:00:24;;;;;;;6.27;2.07;;;3.60;99.90;;;;;;5090373;28;21796;-81
2023/01/31 04:03:03;;;;;;;7.63;2.13;;;3.70;99.90;;;;;;5048655;28;20036;-81
2023/01/31 04:05:31;;;;;;;10.77;3.40;;;3.60;99.90;;;;;;5065734;28;20367;-81
2023/01/31 04:07:57;;;;;;;15.20;2.83;;;3.70;99.90;;;;;;5061037;28;20178;-83
2023/01/31 04:10:24;;;;;;;11.18;2.60;;;3.70;99.90;;;;;;5050251;28;20064;-82
2023/01/31 04:12:50;;;;;;;10.73;2.45;;;3.60;99.90;;;;;;5062861;28;20172;-83
2023/01/31 04:15:16;;;;;;;13.98;3.00;;;3.70;99.90;;;;;;5058601;28;20119;-81
2023/01/31 04:17:41;;;;;;;15.57;3.05;;;3.70;99.90;;;;;;5036227;28;20383;-81
2023/01/31 04:20:08;;;;;;;6.50;2.05;;;3.60;99.90;;;;;;5059831;28;20028;-82
2023/01/31 04:22:34;;;;;;;14.55;4.00;;;3.60;99.90;;;;;;5060669;28;20032;-82
2023/01/31 04:25:00;;;;;;;20.63;4.07;;;3.60;99.90;;;;;;5045368;28;20109;-81
2023/01/31 04:27:26;;;;;;;5.38;2.05;;;3.60;99.90;;;;;;5075372;28;20111;-82
2023/01/31 04:29:52;;;;;;;6.68;2.83;;;3.40;99.90;;;;;;5072133;28;20559;-82
2023/01/31 04:32:17;;;;;;;18.63;3.58;;;3.50;99.90;;;;;;5055549;28;20511;-81
2023/01/31 04:34:43;;;;;;;19.30;3.90;;;3.50;99.90;;;;;;5051352;28;20433;-82
2023/01/31 04:37:09;;;;;;;10.68;3.53;;;3.50;99.90;;;;;;5069540;28;20090;-82
2023/01/31 04:39:35;;;;;;;17.38;3.38;;;3.60;99.90;;;;;;5072005;28;20024;-81
2023/01/31 04:42:00;;;;;;;20.25;4.70;;;3.50;99.90;;;;;;5074786;28;20039;-82
2023/01/31 04:44:26;;;;;;;25.15;3.83;;;3.60;99.90;;;;;;5071505;28;20036;-81
2023/01/31 04:46:51;;;;;;;17.50;4.15;;;3.60;99.90;;;;;;5051532;28;20070;-82
2023/01/31 04:49:17;;;;;;;10.82;2.40;;;3.60;99.90;;;;;;5070131;28;20032;-82
2023/01/31 04:51:43;;;;;;;20.50;4.88;;;3.60;99.90;;;;;;5068137;28;20036;-81
2023/01/31 04:54:08;;;;;;;16.70;3.65;;;3.70;99.90;;;;;;5067478;28;20064;-82
2023/01/31 04:56:34;;;;;;;12.68;3.55;;;3.70;99.90;;;;;;5087613;28;20039;-81
2023/01/31 04:58:59;;;;;;;8.85;2.55;;;3.70;99.90;;;;;;5051493;28;20409;-81
2023/01/31 05:01:25;;;;;;;11.48;2.67;;;3.80;99.90;;;;;;5084620;28;20032;-82
2023/01/31 05:03:51;;;;;;;16.77;3.88;;;3.80;99.90;;;;;;5069667;28;20138;-82
2023/01/31 05:06:16;;;;;;;10.27;2.55;;;3.70;99.90;;;;;;5073002;28;20051;-82
2023/01/31 05:08:42;;;;;;;23.38;6.05;;;3.70;99.90;;;;;;5074676;28;20027;-82
2023/01/31 05:11:07;;;;;;;17.15;3.80;;;3.70;99.90;;;;;;5054357;28;20028;-81
2023/01/31 05:13:36;;;;;;;7.32;2.30;;;3.70;99.90;;;;;;5070332;28;20373;-82
2023/01/31 05:16:06;;;;;;;17.13;4.82;;;3.70;99.90;;;;;;5088096;28;20534;-82
2023/01/31 05:18:31;;;;;;;21.58;5.63;;;3.80;99.90;;;;;;5058251;28;20024;-81
2023/01/31 05:20:57;;;;;;;12.82;4.00;;;3.80;99.90;;;;;;5049240;28;20033;-82
2023/01/31 05:23:22;;;;;;;19.25;5.65;;;3.80;99.90;;;;;;5064653;28;20028;-82
2023/01/31 05:25:48;;;;;;;13.40;3.03;;;3.90;99.90;;;;;;5037859;28;20098;-82
2023/01/31 05:28:14;;;;;;;5.00;2.45;;;3.90;99.90;;;;;;5076557;28;20430;-81
2023/01/31 05:30:39;;;;;;;19.50;6.10;;;3.90;99.90;;;;;;5068141;28;20029;-82
2023/01/31 05:33:05;;;;;;;21.63;4.63;;;3.90;99.90;;;;;;5048457;28;20054;-81
2023/01/31 05:35:31;;;;;;;12.73;4.38;;;3.90;99.90;;;;;;5076531;28;20365;-82
2023/01/31 05:37:57;;;;;;;25.48;6.25;;;3.80;99.90;;;;;;5047232;28;20040;-82
2023/01/31 05:40:23;;;;;;;10.05;3.45;;;3.90;99.90;;;;;;5060009;28;20067;-81
2023/01/31 05:42:55;;;;;;;15.70;3.85;;;3.90;99.90;;;;;;5047403;28;20041;-81
2023/01/31 05:45:21;;;;;;;20.92;5.32;;;3.90;99.90;;;;;;5073699;28;20170;-81
2023/01/31 05:47:47;;;;;;;27.35;6.15;;;3.90;99.90;;;;;;5064365;28;20485;-82
2023/01/31 05:50:12;;;;;;;18.15;5.38;;;3.90;99.90;;;;;;5056786;28;20028;-82
2023/01/31 05:52:38;;;;;;;15.88;5.82;;;3.80;99.90;;;;;;5033842;28;20401;-82
2023/01/31 05:55:04;;;;;;;19.95;5.28;;;3.90;99.90;;;;;;5051772;28;20032;-82
2023/01/31 05:57:29;;;;;;;25.60;6.13;;;3.90;99.90;;;;;;5057565;28;20816;-81
2023/01/31 05:59:55;;;;;;;9.55;3.53;;;3.90;99.90;;;;;;5062577;28;20036;-81
2023/01/31 06:02:20;;;;;;;20.23;6.18;;;3.90;99.90;;;;;;5060253;28;20024;-80
2023/01/31 06:04:46;;;;;;;12.70;4.18;;;3.90;99.90;;;;;;5038091;28;20397;-81
2023/01/31 06:07:12;;;;;;;19.55;5.50;;;3.90;99.90;;;;;;5039527;28;20070;-81
2023/01/31 06:09:39;;;;;;;18.92;5.60;;;3.90;99.90;;;;;;5055146;28;20169;-82
2023/01/31 06:12:05;;;;;;;7.88;3.83;;;3.90;99.90;;;;;;5062978;28;20498;-80
2023/01/31 06:14:31;;;;;;;6.03;2.45;;;3.90;99.90;;;;;;5045915;28;20025;-81
2023/01/31 06:16:56;;;;;;;10.07;3.72;;;3.90;99.90;;;;;;5048085;28;20033;-81
2023/01/31 06:19:24;;;;;;;16.10;4.18;;;3.90;99.90;;;;;;5049352;28;20025;-81
2023/01/31 06:21:50;;;;;;;6.45;3.25;;;3.90;99.90;;;;;;5074849;27;20495;-80
2023/01/31 06:24:15;;;;;;;13.23;3.20;;;3.90;99.90;;;;;;5085646;27;20047;-80
2023/01/31 06:26:41;;;;;;;18.35;5.93;;;3.90;99.90;;;;;;5065958;28;20387;-80
2023/01/31 06:29:08;;;;;;;15.80;5.70;;;3.90;99.90;;;;;;5055009;28;20462;-80
2023/01/31 06:31:33;;;;;;;7.85;3.30;;;3.90;99.90;;;;;;5069169;28;20028;-80
2023/01/31 06:33:59;;;;;;;17.88;5.85;;;3.90;99.90;;;;;;5046742;28;20086;-81
2023/01/31 06:36:25;;;;;;;16.45;5.70;;;4.00;99.90;;;;;;5040084;28;20033;-81
2023/01/31 06:38:51;;;;;;;14.95;5.03;;;4.00;99.90;;;;;;5079869;28;20049;-81
2023/01/31 06:41:18;;;;;;;14.93;4.40;;;4.00;99.90;;;;;;5056853;28;20033;-82
2023/01/31 06:43:43;;;;;;;13.00;5.10;;;4.00;99.90;;;;;;5036940;28;20139;-82
2023/01/31 06:46:09;;;;;;;20.48;6.15;;;4.00;99.90;;;;;;5087837;28;20118;-82
2023/01/31 06:48:34;;;;;;;12.43;4.30;;;4.00;99.90;;;;;;5080645;28;20043;-83
2023/01/31 06:51:00;;;;;;;11.40;5.30;;;4.00;99.90;;;;;;5045069;28;20041;-82
2023/01/31 06:53:26;;;;;;;21.58;4.93;;;4.10;99.90;;;;;;5064441;28;20028;-83
2023/01/31 06:55:51;;;;;;;19.10;4.60;;;4.00;99.90;;;;;;5055285;28;20510;-82
2023/01/31 06:58:17;;;;;;;19.67;5.97;;;4.10;99.90;;;;;;5049404;28;20024;-83
2023/01/31 07:00:42;;;;;;;20.40;5.18;;;3.90;99.90;;;;;;5061883;28;20395;-82
2023/01/31 07:03:08;;;;;;;15.50;3.47;;;4.10;99.90;;;;;;5051149;28;20464;-82
2023/01/31 07:05:33;;;;;;;14.52;3.70;;;4.10;99.90;;;;;;5045500;27;20078;-81
2023/01/31 07:07:59;;;;;;;19.35;5.95;;;4.10;99.90;;;;;;5066592;28;20067;-83
2023/01/31 07:10:25;;;;;;;10.93;2.97;;;4.00;99.90;;;;;;5071601;28;20043;-82
2023/01/31 07:12:50;;;;;;;15.60;6.78;;;4.20;99.90;;;;;;5060087;27;20033;-82
2023/01/31 07:15:16;;;;;;;17.35;5.60;;;4.20;99.90;;;;;;5047400;28;20024;-82
2023/01/31 07:17:43;;;;;;;17.38;5.68;;;4.20;99.90;;;;;;5061269;28;20483;-80
2023/01/31 07:20:09;;;;;;;16.42;5.47;;;4.10;99.90;;;;;;5080113;28;20067;-81
2023/01/31 07:22:34;;;;;;;16.63;4.43;;;4.10;99.90;;;;;;5055110;28;20036;-80
2023/01/31 07:25:00;;;;;;;19.67;6.28;;;4.10;99.90;;;;;;5047434;28;20100;-83
2023/01/31 07:27:26;;;;;;;19.95;7.07;;;4.20;99.90;;;;;;5068256;27;20168;-83
2023/01/31 07:29:51;;;;;;;17.83;2.97;;;4.10;99.90;;;;;;5059625;28;20115;-83
2023/01/31 07:32:17;;;;;;;27.13;5.63;;;4.10;99.90;;;;;;5074009;28;20021;-83
2023/01/31 07:34:42;;;;;;;13.88;4.55;;;4.20;99.90;;;;;;5078112;28;20028;-83
2023/01/31 07:37:08;;;;;;;27.67;5.30;;;4.20;99.90;;;;;;5081579;27;20079;-82
2023/01/31 07:39:34;;;;;;;21.75;6.03;;;4.20;99.90;;;;;;5046488;28;20032;-84
2023/01/31 07:41:59;;;;;;;31.38;5.93;;;4.20;99.90;;;;;;5072001;28;20120;-84
2023/01/31 07:44:25;;;;;;;17.15;5.95;;;4.20;99.90;;;;;;5067304;28;20089;-81
2023/01/31 07:46:53;;;;;;;18.15;4.85;;;4.30;99.90;;;;;;5059606;28;20042;-79
2023/01/31 07:49:19;;;;;;;14.23;4.32;;;4.30;99.90;;;;;;5066640;28;20024;-82
2023/01/31 07:51:44;;;;;;;11.60;3.88;;;4.30;99.90;;;;;;5060609;28;20742;-81
2023/01/31 07:54:10;;;;;;;14.85;4.20;;;4.30;99.90;;;;;;5077200;28;20455;-82
2023/01/31 07:56:35;;;;;;;17.08;4.13;;;4.40;99.90;;;;;;5056774;27;20498;-80
2023/01/31 07:59:01;;;;;;;11.65;2.90;;;4.40;99.90;;;;;;5067367;28;20391;-81
2023/01/31 08:04:12;;;;;;;15.95;4.93;;;4.40;99.90;;;;;;5088494;28;20035;-82
2023/01/31 08:06:38;;;;;;;11.93;2.53;;;4.50;99.90;;;;;;5053515;28;20054;-81
2023/01/31 08:09:04;;;;;;;16.85;4.82;;;4.50;99.90;;;;;;5072138;28;20032;-82
2023/01/31 08:11:29;;;;;;;19.40;4.88;;;4.50;99.90;;;;;;5063940;28;20027;-81
2023/01/31 08:13:55;;;;;;;11.55;4.47;;;4.60;99.90;;;;;;5073811;28;20024;-81
2023/01/31 08:16:20;;;;;;;18.88;4.05;;;4.60;99.90;;;;;;5090126;28;20032;-81
2023/01/31 08:18:47;;;;;;;15.75;3.72;;;4.60;99.90;;;;;;5071677;28;20027;-81
2023/01/31 08:21:13;;;;;;;4.60;2.05;;;4.60;99.90;;;;;;5071781;28;20036;-81
2023/01/31 08:23:39;;;;;;;12.88;3.72;;;4.60;99.90;;;;;;5054083;28;20035;-81
2023/01/31 08:26:09;;;;;;;18.38;4.53;;;4.60;99.90;;;;;;5081341;28;20522;-84
2023/01/31 08:28:34;;;;;;;14.75;3.60;;;4.60;99.90;;;;;;5068914;28;20487;-83
2023/01/31 08:31:00;;;;;;;13.30;3.50;;;4.70;99.90;;;;;;5065873;28;20043;-83
2023/01/31 08:33:26;;;;;;;17.85;3.95;;;4.70;99.90;;;;;;5075800;28;20684;-84
2023/01/31 08:35:51;;;;;;;16.45;3.67;;;4.70;99.90;;;;;;5071350;28;20140;-84
2023/01/31 08:38:17;;;;;;;4.47;2.05;;;4.70;99.90;;;;;;5056161;28;20051;-85
2023/01/31 08:40:43;;;;;;;18.50;3.58;;;4.70;99.90;;;;;;5062475;28;20058;-85
2023/01/31 08:43:08;;;;;;;24.98;3.50;;;4.70;99.90;;;;;;5043468;28;20047;-85
2023/01/31 08:45:34;;;;;;;12.77;3.13;;;4.70;99.90;;;;;;5075156;28;20043;-84
2023/01/31 08:48:00;;;;;;;6.22;2.63;;;4.60;99.90;;;;;;5051231;28;20041;-84
2023/01/31 08:50:27;;;;;;;11.68;2.60;;;4.60;99.90;;;;;;5058472;28;20067;-84
2023/01/31 08:53:00;;;;;;;17.48;4.25;;;4.60;99.90;;;;;;5041137;28;20040;-83
2023/01/31 08:55:25;;;;;;;8.25;2.95;;;4.60;99.90;;;;;;5073400;28;20086;-83
2023/01/31 08:57:51;;;;;;;4.22;1.83;;;4.60;99.90;;;;;;5043486;28;20041;-84
2023/01/31 09:00:17;;;;;;;15.13;4.20;;;4.60;99.90;;;;;;5086688;28;20036;-84
2023/01/31 09:02:45;;;;;;;10.40;2.72;;;4.60;99.90;;;;;;5061663;28;20028;-84
2023/01/31 09:05:11;;;;;;;12.07;2.92;;;4.60;99.90;;;;;;5066627;28;20044;-84
2023/01/31 09:07:37;;;;;;;18.55;3.45;;;4.60;99.90;;;;;;5058948;28;20483;-84
2023/01/31 09:10:03;;;;;;;14.70;3.63;;;4.60;99.90;;;;;;5061098;28;20033;-84
2023/01/31 09:12:28;;;;;;;11.98;2.60;;;4.60;99.90;;;;;;5080160;28;20073;-83
2023/01/31 09:14:54;;;;;;;13.07;4.03;;;4.60;99.90;;;;;;5061230;28;20119;-83
2023/01/31 09:17:20;;;;;;;8.68;1.40;;;4.60;99.90;;;;;;5051078;28;20141;-85
2023/01/31 09:19:47;;;;;;;16.20;3.58;;;4.60;99.90;;;;;;5069573;28;20028;-84
2023/01/31 09:22:13;;;;;;;10.40;3.47;;;4.60;99.90;;;;;;5070808;28;20491;-84
2023/01/31 09:24:38;;;;;;;9.40;2.72;;;4.70;99.90;;;;;;5042501;27;20032;-84
2023/01/31 09:27:04;;;;;;;12.07;3.67;;;4.70;99.90;;;;;;5068797;28;20040;-83
2023/01/31 09:29:30;;;;;;;23.80;2.60;;;4.70;99.90;;;;;;5073394;28;20035;-83
2023/01/31 09:31:55;;;;;;;17.48;3.00;;;4.70;99.90;;;;;;5075684;28;20036;-84
2023/01/31 09:34:21;;;;;;;11.07;3.00;;;4.70;99.90;;;;;;5058486;28;20039;-84
2023/01/31 09:36:46;;;;;;;8.13;1.45;;;4.80;99.90;;;;;;5059501;28;20545;-83
2023/01/31 09:39:13;;;;;;;13.93;3.10;;;4.80;99.90;;;;;;5036639;28;20043;-81
2023/01/31 09:41:57;;;;;;;11.73;2.25;;;4.90;99.90;;;;;;5037919;28;20036;-81
2023/01/31 09:44:35;;;;;;;8.57;2.22;;;4.90;99.90;;;;;;5066676;28;20649;-82
2023/01/31 09:47:21;;;;;;;15.95;3.45;;;4.90;99.90;;;;;;5066513;28;20103;-80
2023/01/31 09:49:52;;;;;;;17.02;2.85;;;4.90;99.90;;;;;;5047728;28;20044;-81
2023/01/31 09:52:18;;;;;;;18.90;4.20;;;4.90;99.90;;;;;;5067631;28;20039;-81
2023/01/31 09:54:44;;;;;;;13.73;3.72;;;4.90;99.90;;;;;;5053361;28;20497;-81
2023/01/31 09:57:27;;;;;;;11.70;2.20;;;4.90;99.90;;;;;;5051141;28;20042;-81
2023/01/31 10:00:02;;;;;;;15.82;3.58;;;4.90;99.90;;;;;;5080855;28;20652;-84
2023/01/31 10:02:46;;;;;;;9.07;2.83;;;5.00;99.90;;;;;;5088812;28;20553;-84
2023/01/31 10:05:24;;;;;;;7.50;1.75;;;5.00;99.90;;;;;;5056233;28;20074;-84
2023/01/31 10:08:13;;;;;;;11.70;2.08;;;5.00;99.90;;;;;;5087684;28;20030;-85
2023/01/31 10:10:47;;;;;;;11.90;2.58;;;5.10;99.90;;;;;;5074333;28;20028;-84
2023/01/31 10:13:22;;;;;;;7.05;2.25;;;5.10;99.90;;;;;;5065031;28;20035;-84
2023/01/31 10:16:02;;;;;;;6.25;2.10;;;5.10;99.90;;;;;;5065573;28;20024;-84
2023/01/31 10:18:31;;;;;;;20.90;3.38;;;5.20;99.90;;;;;;5091225;28;20040;-84
2023/01/31 10:21:06;;;;;;;4.57;2.45;;;5.20;99.90;;;;;;5085472;28;20032;-84
2023/01/31 10:23:40;;;;;;;17.37;2.97;;;5.20;99.90;;;;;;5087720;28;20024;-84
2023/01/31 10:26:10;;;;;;;8.80;2.85;;;5.20;99.90;;;;;;5065284;28;20063;-85
2023/01/31 10:28:51;;;;;;;13.55;4.13;;;5.20;99.90;;;;;;5066149;28;20081;-85
2023/01/31 10:31:39;;;;;;;14.55;3.42;;;5.20;99.90;;;;;;5089380;28;20449;-85
2023/01/31 10:34:09;;;;;;;11.48;2.92;;;5.20;99.90;;;;;;5073405;28;20027;-84
2023/01/31 10:36:43;;;;;;;10.57;4.07;;;5.10;99.90;;;;;;5068349;28;20140;-84
2023/01/31 10:39:11;;;;;;;13.90;3.10;;;5.10;99.90;;;;;;5072558;28;20044;-83
2023/01/31 10:41:43;;;;;;;11.02;3.97;;;5.20;99.90;;;;;;5077589;28;20495;-84
2023/01/31 10:44:37;;;;;;;7.00;2.42;;;5.20;99.90;;;;;;5056929;28;20024;-84
2023/01/31 10:47:08;;;;;;;14.70;3.10;;;5.30;99.90;;;;;;5072830;28;20067;-82
2023/01/31 10:49:33;;;;;;;14.77;3.92;;;5.30;99.90;;;;;;5057478;28;20039;-84
2023/01/31 10:52:07;;;;;;;14.38;4.93;;;5.30;99.90;;;;;;5068848;28;20036;-83
2023/01/31 10:54:51;;;;;;;8.75;2.60;;;5.30;99.90;;;;;;5052478;28;20614;-84
2023/01/31 10:57:17;;;;;;;9.82;4.78;;;5.30;99.90;;;;;;5077433;28;20025;-84
2023/01/31 10:59:44;;;;;;;17.52;4.43;;;5.30;99.90;;;;;;5065450;28;20032;-84
2023/01/31 11:02:23;;;;;;;12.18;3.92;;;5.30;99.90;;;;;;5064673;28;20490;-85
2023/01/31 11:04:54;;;;;;;7.82;2.78;;;5.40;99.90;;;;;;5063259;28;20032;-85
2023/01/31 11:07:19;;;;;;;14.07;2.90;;;5.40;99.90;;;;;;5062725;28;20365;-82
2023/01/31 11:09:52;;;;;;;11.57;3.97;;;5.40;99.90;;;;;;5051182;28;20028;-81
2023/01/31 11:12:18;;;;;;;10.80;3.28;;;5.40;99.90;;;;;;5048274;27;20118;-82
2023/01/31 11:14:44;;;;;;;9.93;2.83;;;5.40;99.90;;;;;;5066550;28;20028;-82
2023/01/31 11:17:22;;;;;;;15.13;3.83;;;5.30;99.90;;;;;;5049357;28;20497;-82
2023/01/31 11:19:51;;;;;;;10.82;4.22;;;5.30;99.90;;;;;;5061076;28;20483;-82
2023/01/31 11:22:21;;;;;;;14.50;3.75;;;5.40;99.90;;;;;;5063567;28;20568;-82
2023/01/31 11:24:47;;;;;;;11.30;3.78;;;5.40;99.90;;;;;;5073021;28;20028;-82
2023/01/31 11:27:21;;;;;;;12.38;2.65;;;5.50;99.90;;;;;;5070036;28;20089;-82
2023/01/31 11:29:50;;;;;;;16.77;4.47;;;5.50;99.90;;;;;;5047326;28;20028;-85
2023/01/31 11:32:24;;;;;;;5.18;2.85;;;5.50;99.90;;;;;;5056368;28;20082;-84
2023/01/31 11:35:28;;;;;;;6.68;2.25;;;5.60;99.90;;;;;;5065785;28;20081;-84
2023/01/31 11:38:01;;;;;;;10.18;2.97;;;5.60;99.90;;;;;;5069620;28;20513;-84
2023/01/31 11:40:29;;;;;;;14.25;5.18;;;5.60;99.90;;;;;;5071735;28;20115;-84
2023/01/31 11:42:55;;;;;;;6.50;2.00;;;5.60;99.90;;;;;;5053105;28;20131;-84
2023/01/31 11:45:23;;;;;;;9.77;4.30;;;5.60;99.90;;;;;;5083925;28;20041;-84
2023/01/31 11:47:50;;;;;;;7.47;2.25;;;5.60;99.90;;;;;;5059890;28;20039;-84
2023/01/31 11:50:22;;;;;;;14.73;4.15;;;5.70;99.90;;;;;;5055104;28;20017;-84
2023/01/31 11:52:58;;;;;;;12.95;4.40;;;5.70;99.90;;;;;;5061694;28;20024;-84
2023/01/31 11:55:24;;;;;;;11.93;3.55;;;5.80;99.90;;;;;;5055617;28;20025;-81
2023/01/31 11:57:57;;;;;;;7.03;2.70;;;5.80;99.90;;;;;;5051544;28;20021;-81
2023/01/31 12:00:24;;;;;;;4.45;2.33;;;5.80;99.90;;;;;;5063593;28;20032;-81
2023/01/31 12:03:06;;;;;;;12.65;4.43;;;5.80;99.90;;;;;;5061292;28;20064;-82
2023/01/31 12:05:44;;;;;;;12.57;3.92;;;5.80;99.90;;;;;;5043618;28;20032;-82
2023/01/31 12:08:30;;;;;;;10.80;4.07;;;5.80;99.90;;;;;;5048997;28;20071;-84
2023/01/31 12:10:56;;;;;;;12.70;5.20;;;5.80;99.90;;;;;;5062599;28;20020;-84
2023/01/31 12:13:21;;;;;;;14.75;4.45;;;5.90;99.90;;;;;;5081405;28;20550;-84
2023/01/31 12:16:00;;;;;;;19.25;5.07;;;5.90;99.90;;;;;;5061952;28;20071;-84
2023/01/31 12:18:51;;;;;;;15.50;5.38;;;6.00;99.90;;;;;;5081427;28;20036;-83
2023/01/31 12:21:48;;;;;;;18.55;6.40;;;6.00;99.90;;;;;;5073351;28;20024;-82
2023/01/31 12:24:33;;;;;;;11.68;5.78;;;6.00;99.90;;;;;;5070901;28;20035;-81
2023/01/31 12:27:05;;;;;;;10.80;4.35;;;6.00;99.90;;;;;;5073846;28;20040;-82
2023/01/31 12:30:09;;;;;;;14.52;5.50;;;6.00;99.90;;;;;;5059654;28;20062;-81
2023/01/31 12:32:57;;;;;;;5.72;3.10;;;6.00;99.90;;;;;;5077133;28;20028;-84
2023/01/31 12:35:47;;;;;;;16.90;4.65;;;6.00;99.90;;;;;;5074603;28;20392;-84
2023/01/31 12:38:39;;;;;;;19.17;5.22;;;6.00;99.90;;;;;;5073833;28;20047;-84
2023/01/31 12:41:35;;;;;;;13.70;5.25;;;6.00;99.90;;;;;;5077851;28;20033;-82
2023/01/31 12:44:31;;;;;;;12.73;5.78;;;6.00;99.90;;;;;;5078306;27;20032;-82
2023/01/31 12:47:15;;;;;;;8.10;3.70;;;6.10;99.90;;;;;;5045474;28;20091;-83
2023/01/31 12:49:57;;;;;;;12.52;5.70;;;6.10;99.90;;;;;;5088309;27;20035;-82
2023/01/31 12:52:51;;;;;;;4.38;2.08;;;6.00;99.90;;;;;;5079356;28;20032;-82
2023/01/31 12:55:32;;;;;;;16.27;6.20;;;6.10;99.90;;;;;;5082165;28;20028;-83
2023/01/31 12:58:25;;;;;;;15.20;5.85;;;6.10;99.90;;;;;;5058966;28;20028;-83
2023/01/31 13:01:10;;;;;;;13.80;6.22;;;6.10;99.90;;;;;;5081991;28;20029;-82
2023/01/31 13:03:39;;;;;;;10.97;5.70;;;6.10;99.90;;;;;;5088707;28;20024;-83
2023/01/31 13:06:14;;;;;;;14.30;7.20;;;6.10;99.90;;;;;;5085958;28;20475;-82
2023/01/31 13:08:41;;;;;;;14.45;6.60;;;6.10;99.90;;;;;;5046461;28;20120;-82
2023/01/31 13:11:10;;;;;;;16.67;7.38;;;6.10;99.90;;;;;;5044607;28;20033;-82
2023/01/31 13:13:50;;;;;;;10.20;5.45;;;6.10;99.90;;;;;;5059853;28;20431;-82